Goodman, Wisconsin
Current Conditions -  °F | °C
As of 7:36 PM on Friday 19 Dec 2014 (Local Time) from KIMT Reporting Station
Haze Haze  
Wind Chill:   Ceiling: Unl
Heat Index:   Visibility: 1mi
Dew Point:   Wind: 0mph
Humidity: 92%   Direction: NA
Pressure: 30.24"   Gusts: NA
Location:  45.63°N, 88.35°W
Report Text: KIMT 200136Z AUTO 00000KT 1SM BR CLR M13/M14 A3024 RMK AO2 VIS 3/4V5 T11281139
Loading
Personal Weather Stations






























Interactive Weather Map New forecast layout! Learn more

10-Day Weather Forecast

Advertisements
Track Severe Weather on mobile